Time;durP1;ratioP1;P1;durP2;ratioP2;P2;SDS_P1;SDS_P2;PMS_P1;PMS_P2;Temp;Humidity;BMP_temperature;BMP_pressure;BME280_temperature;BME280_humidity;BME280_pressure;Samples;Min_cycle;Max_cycle;Signal;HPM_P1;HPM_P2
2020/12/04 00:01:40;;;;;;;10.95;8.20;;;4.10;99.90;;;;;;5011608;28;20459;-64
2020/12/04 00:04:07;;;;;;;8.10;6.60;;;4.10;1.00;;;;;;5011564;28;20415;-64
2020/12/04 00:06:33;;;;;;;7.20;6.35;;;4.20;1.00;;;;;;5011491;28;20412;-64
2020/12/04 00:09:00;;;;;;;8.73;6.43;;;4.20;99.90;;;;;;5011499;28;20429;-64
2020/12/04 00:11:27;;;;;;;7.37;6.03;;;4.20;99.90;;;;;;5011593;28;20553;-64
2020/12/04 00:13:53;;;;;;;8.32;6.78;;;4.20;99.90;;;;;;5011261;28;20416;-64
2020/12/04 00:16:20;;;;;;;7.95;6.63;;;4.30;99.90;;;;;;5011365;28;20491;-65
2020/12/04 00:18:46;;;;;;;8.18;6.60;;;4.30;99.90;;;;;;5011320;28;20413;-65
2020/12/04 00:21:12;;;;;;;7.35;6.65;;;4.20;99.90;;;;;;5011115;28;20893;-65
2020/12/04 00:23:38;;;;;;;6.38;5.78;;;4.30;99.90;;;;;;5011327;28;20467;-65
2020/12/04 00:26:04;;;;;;;9.18;6.50;;;4.20;99.90;;;;;;5011636;28;20412;-64
2020/12/04 00:28:30;;;;;;;7.63;6.82;;;4.20;99.90;;;;;;5011454;28;20474;-64
2020/12/04 00:30:57;;;;;;;7.10;6.40;;;4.20;99.90;;;;;;5011882;28;20408;-64
2020/12/04 00:33:23;;;;;;;8.35;6.60;;;4.30;99.90;;;;;;5011054;28;20491;-64
2020/12/04 00:35:49;;;;;;;7.18;5.93;;;4.30;99.90;;;;;;5011299;28;20409;-64
2020/12/04 00:38:16;;;;;;;7.15;5.80;;;4.30;99.90;;;;;;5011246;28;20547;-64
2020/12/04 00:40:42;;;;;;;6.50;5.75;;;4.30;99.90;;;;;;5011319;28;20421;-64
2020/12/04 00:43:08;;;;;;;7.33;6.60;;;4.30;99.90;;;;;;5010987;28;20501;-64
2020/12/04 00:45:34;;;;;;;7.05;6.20;;;4.30;99.90;;;;;;5011109;28;20443;-64
2020/12/04 00:48:01;;;;;;;6.13;5.35;;;4.30;99.90;;;;;;5010978;28;20912;-64
2020/12/04 00:50:28;;;;;;;7.07;5.85;;;4.30;99.90;;;;;;5010989;28;20443;-65
2020/12/04 00:52:54;;;;;;;7.13;5.70;;;4.40;99.90;;;;;;5010661;28;20503;-64
2020/12/04 00:55:20;;;;;;;6.88;6.03;;;4.40;99.90;;;;;;5011149;28;20496;-66
2020/12/04 00:57:46;;;;;;;6.55;5.85;;;4.40;99.90;;;;;;5011027;28;20782;-66
2020/12/04 01:00:13;;;;;;;7.35;6.50;;;4.40;99.90;;;;;;5010945;28;20489;-64
2020/12/04 01:02:39;;;;;;;6.43;5.82;;;4.40;99.90;;;;;;5010550;28;20409;-66
2020/12/04 01:05:06;;;;;;;8.40;6.40;;;4.30;1.00;;;;;;5010872;28;20459;-65
2020/12/04 01:07:32;;;;;;;7.90;6.60;;;4.30;1.00;;;;;;5010542;28;20428;-66
2020/12/04 01:09:58;;;;;;;7.03;6.33;;;4.40;1.00;;;;;;5011591;28;20470;-65
2020/12/04 01:12:24;;;;;;;8.35;6.50;;;4.40;1.00;;;;;;5014423;28;20482;-67
2020/12/04 01:14:50;;;;;;;6.28;5.55;;;4.30;1.00;;;;;;5014273;28;20412;-64
2020/12/04 01:17:16;;;;;;;6.75;5.82;;;4.40;1.00;;;;;;5014323;28;20487;-65
2020/12/04 01:19:43;;;;;;;6.22;5.50;;;4.30;1.00;;;;;;5014193;28;20413;-64
2020/12/04 01:22:10;;;;;;;6.05;5.38;;;4.40;1.00;;;;;;5014042;28;20420;-64
2020/12/04 01:24:36;;;;;;;7.83;5.67;;;4.30;1.00;;;;;;5013799;28;20455;-64
2020/12/04 01:27:02;;;;;;;5.90;5.30;;;4.40;1.00;;;;;;5014262;28;20439;-64
2020/12/04 01:29:28;;;;;;;6.40;5.70;;;4.40;1.00;;;;;;5014081;28;20424;-64
2020/12/04 01:31:54;;;;;;;5.28;4.78;;;4.40;1.00;;;;;;5013872;28;20425;-64
2020/12/04 01:34:20;;;;;;;5.90;5.30;;;4.50;1.00;;;;;;5013923;28;20478;-65
2020/12/04 01:36:49;;;;;;;5.97;5.00;;;4.60;1.00;;;;;;5013861;28;20932;-65
2020/12/04 01:39:16;;;;;;;5.70;4.78;;;4.60;1.00;;;;;;5014075;28;20409;-65
2020/12/04 01:41:42;;;;;;;6.03;5.00;;;4.60;1.00;;;;;;5013855;28;20906;-65
2020/12/04 01:44:08;;;;;;;5.78;5.18;;;4.60;1.00;;;;;;5013647;28;20417;-65
2020/12/04 01:46:35;;;;;;;5.43;4.60;;;4.50;1.00;;;;;;5013793;28;20837;-65
2020/12/04 01:49:01;;;;;;;4.97;4.32;;;4.50;1.00;;;;;;5013668;28;20424;-65
2020/12/04 01:51:28;;;;;;;6.13;5.45;;;4.50;1.00;;;;;;5013689;28;20420;-65
2020/12/04 01:53:54;;;;;;;5.50;4.95;;;4.60;1.00;;;;;;5013637;28;20468;-65
2020/12/04 01:56:21;;;;;;;5.00;4.50;;;4.60;1.00;;;;;;5013620;28;20473;-65
2020/12/04 01:58:47;;;;;;;5.30;4.80;;;4.60;1.00;;;;;;5013589;28;20455;-65
2020/12/04 02:01:16;;;;;;;5.75;5.15;;;4.60;1.00;;;;;;5013507;28;20448;-64
2020/12/04 02:03:43;;;;;;;6.22;4.82;;;4.60;1.00;;;;;;5013023;28;20417;-64
2020/12/04 02:06:18;;;;;;;5.20;4.70;;;4.70;1.00;;;;;;5013597;28;20555;-64
2020/12/04 02:08:51;;;;;;;6.00;5.20;;;4.60;1.00;;;;;;5013382;28;20499;-64
2020/12/04 02:11:21;;;;;;;5.80;5.00;;;4.60;1.00;;;;;;5013448;28;20828;-65
2020/12/04 02:13:50;;;;;;;5.60;5.00;;;4.60;1.00;;;;;;5012905;28;20447;-64
2020/12/04 02:16:17;;;;;;;6.60;4.60;;;4.60;1.00;;;;;;5012953;28;20444;-65
2020/12/04 02:18:43;;;;;;;5.75;5.00;;;4.60;1.00;;;;;;5013282;28;20789;-65
2020/12/04 02:21:10;;;;;;;5.28;4.78;;;4.60;1.00;;;;;;5013246;28;20409;-65
2020/12/04 02:23:36;;;;;;;5.30;4.57;;;4.60;1.00;;;;;;5012344;28;20417;-64
2020/12/04 02:26:04;;;;;;;5.10;4.60;;;4.60;1.00;;;;;;5013156;28;20467;-65
2020/12/04 02:28:32;;;;;;;4.77;4.30;;;4.60;1.00;;;;;;5012833;28;20424;-64
2020/12/04 02:30:58;;;;;;;5.30;4.80;;;4.60;1.00;;;;;;5012978;28;20413;-65
2020/12/04 02:33:24;;;;;;;5.30;4.68;;;4.60;1.00;;;;;;5013010;28;20421;-65
2020/12/04 02:35:50;;;;;;;4.82;4.30;;;4.60;1.00;;;;;;5015104;28;20466;-64
2020/12/04 02:38:17;;;;;;;5.20;4.67;;;4.60;1.00;;;;;;5012845;28;20405;-64
2020/12/04 02:40:43;;;;;;;5.38;4.88;;;4.70;1.00;;;;;;5012627;28;20409;-65
2020/12/04 02:43:09;;;;;;;4.30;3.85;;;4.70;1.00;;;;;;5012265;28;20889;-65
2020/12/04 02:45:36;;;;;;;5.72;4.47;;;4.60;1.00;;;;;;5012886;28;20838;-65
2020/12/04 02:48:02;;;;;;;5.57;4.80;;;4.70;1.00;;;;;;5012277;28;20943;-65
2020/12/04 02:50:28;;;;;;;5.75;4.55;;;4.70;1.00;;;;;;5012731;28;20408;-65
2020/12/04 02:52:54;;;;;;;6.50;4.80;;;4.70;1.00;;;;;;5012701;28;20463;-65
2020/12/04 02:55:21;;;;;;;4.93;4.40;;;4.70;1.00;;;;;;5012483;28;20836;-65
2020/12/04 02:57:47;;;;;;;3.85;3.42;;;4.70;1.00;;;;;;5012403;28;20817;-65
2020/12/04 03:00:14;;;;;;;5.75;4.60;;;4.70;1.00;;;;;;5012652;28;20467;-65
2020/12/04 03:02:40;;;;;;;5.53;4.15;;;4.70;1.00;;;;;;5012246;28;20825;-65
2020/12/04 03:05:06;;;;;;;4.97;4.47;;;4.80;1.00;;;;;;5012127;28;20413;-65
2020/12/04 03:07:32;;;;;;;5.30;4.40;;;4.80;1.00;;;;;;5012221;28;20417;-66
2020/12/04 03:09:58;;;;;;;4.93;3.90;;;4.80;1.00;;;;;;5012194;28;20467;-65
2020/12/04 03:12:25;;;;;;;6.70;4.45;;;4.80;1.00;;;;;;5011887;28;20447;-65
2020/12/04 03:14:51;;;;;;;4.78;4.28;;;4.80;1.00;;;;;;5012124;28;20412;-65
2020/12/04 03:17:17;;;;;;;5.28;4.28;;;4.80;1.00;;;;;;5012195;28;20412;-65
2020/12/04 03:19:43;;;;;;;4.43;4.03;;;4.80;1.00;;;;;;5012029;28;20417;-66
2020/12/04 03:22:09;;;;;;;5.07;4.30;;;4.90;1.00;;;;;;5012081;28;20816;-66
2020/12/04 03:24:35;;;;;;;4.82;4.10;;;4.90;1.00;;;;;;5012337;28;20444;-66
2020/12/04 03:27:02;;;;;;;4.03;3.65;;;4.90;1.00;;;;;;5012519;28;20408;-66
2020/12/04 03:29:29;;;;;;;4.15;3.30;;;5.00;1.00;;;;;;5011875;28;20435;-66
2020/12/04 03:31:55;;;;;;;4.25;3.85;;;5.00;1.00;;;;;;5013687;28;20412;-65
2020/12/04 03:34:21;;;;;;;4.00;3.60;;;5.00;1.00;;;;;;5013525;28;20474;-65
2020/12/04 03:36:47;;;;;;;4.40;4.00;;;5.00;1.00;;;;;;5013242;28;20463;-65
2020/12/04 03:39:13;;;;;;;4.60;3.90;;;5.00;1.00;;;;;;5011744;28;20404;-66
2020/12/04 03:41:39;;;;;;;3.60;3.30;;;5.00;1.00;;;;;;5011456;28;20463;-65
2020/12/04 03:44:05;;;;;;;4.00;3.60;;;5.10;1.00;;;;;;5011822;28;20798;-66
2020/12/04 03:46:32;;;;;;;3.45;3.10;;;5.00;1.00;;;;;;5011887;28;20412;-66
2020/12/04 03:48:58;;;;;;;3.97;3.58;;;5.10;1.00;;;;;;5013321;28;20909;-65
2020/12/04 03:51:24;;;;;;;4.57;3.43;;;5.00;1.00;;;;;;5015238;28;20412;-65
2020/12/04 03:53:50;;;;;;;3.22;2.92;;;5.10;99.90;;;;;;5015649;28;20423;-66
2020/12/04 03:56:16;;;;;;;3.30;3.00;;;5.10;99.90;;;;;;5013257;28;20416;-66
2020/12/04 03:58:42;;;;;;;3.35;2.90;;;5.20;99.90;;;;;;5011566;28;20408;-66
2020/12/04 04:01:08;;;;;;;3.50;3.10;;;5.20;99.90;;;;;;5011256;28;20447;-66
2020/12/04 04:03:35;;;;;;;3.60;3.30;;;5.20;99.90;;;;;;5011143;28;20458;-66
2020/12/04 04:06:01;;;;;;;3.78;3.47;;;5.20;99.90;;;;;;5011600;28;20415;-66
2020/12/04 04:08:28;;;;;;;3.67;3.17;;;5.30;99.90;;;;;;5011308;28;20499;-66
2020/12/04 04:10:54;;;;;;;3.83;2.83;;;5.40;99.90;;;;;;5011042;28;20412;-66
2020/12/04 04:13:20;;;;;;;4.00;3.57;;;5.30;99.90;;;;;;5011115;28;20416;-66
2020/12/04 04:15:46;;;;;;;4.43;3.70;;;5.30;99.90;;;;;;5011299;28;20417;-66
2020/12/04 04:18:12;;;;;;;4.20;3.30;;;5.30;99.90;;;;;;5011360;28;20940;-66
2020/12/04 04:20:39;;;;;;;3.67;3.38;;;5.40;99.90;;;;;;5011273;28;20413;-66
2020/12/04 04:23:05;;;;;;;4.18;3.63;;;5.40;99.90;;;;;;5010999;28;20416;-66
2020/12/04 04:25:31;;;;;;;3.10;2.80;;;5.40;99.90;;;;;;5011228;28;20420;-65
2020/12/04 04:27:57;;;;;;;3.70;3.40;;;5.50;99.90;;;;;;5011530;28;20479;-65
2020/12/04 04:30:23;;;;;;;4.50;3.90;;;5.40;99.90;;;;;;5011024;28;20885;-66
2020/12/04 04:32:49;;;;;;;3.80;3.50;;;5.40;99.90;;;;;;5011138;28;20412;-66
2020/12/04 04:35:15;;;;;;;3.58;3.13;;;5.50;99.90;;;;;;5011358;28;20893;-66
2020/12/04 04:37:43;;;;;;;3.70;3.40;;;5.50;99.90;;;;;;5011275;28;20446;-65
2020/12/04 04:40:11;;;;;;;5.47;4.15;;;5.40;99.90;;;;;;5011229;28;20478;-65
2020/12/04 04:42:37;;;;;;;5.70;4.20;;;5.40;1.00;;;;;;5011600;28;20408;-66
2020/12/04 04:45:03;;;;;;;4.47;3.90;;;5.30;1.00;;;;;;5013338;28;20818;-66
2020/12/04 04:47:31;;;;;;;6.03;3.83;;;5.30;1.00;;;;;;5016089;28;20417;-66
2020/12/04 04:49:57;;;;;;;4.72;4.15;;;5.20;1.00;;;;;;5015429;28;20808;-66
2020/12/04 04:52:24;;;;;;;5.70;4.68;;;5.20;1.00;;;;;;5015138;28;20421;-66
2020/12/04 04:54:51;;;;;;;5.45;4.75;;;5.20;1.00;;;;;;5015281;28;20408;-65
2020/12/04 04:57:21;;;;;;;4.95;4.45;;;5.20;1.00;;;;;;5014941;28;20487;-66
2020/12/04 04:59:47;;;;;;;5.07;4.57;;;5.10;1.00;;;;;;5014636;28;20476;-65
2020/12/04 05:02:14;;;;;;;5.53;4.50;;;5.00;1.00;;;;;;5014421;28;20409;-66
2020/12/04 05:04:48;;;;;;;4.30;3.87;;;5.00;1.00;;;;;;5014490;28;20478;-66
2020/12/04 05:07:17;;;;;;;4.33;3.93;;;5.00;1.00;;;;;;5015544;28;20412;-66
2020/12/04 05:09:43;;;;;;;5.03;4.53;;;5.10;1.00;;;;;;5015321;28;20511;-66
2020/12/04 05:12:10;;;;;;;5.70;4.78;;;5.20;1.00;;;;;;5014964;28;20777;-66
2020/12/04 05:14:36;;;;;;;4.70;3.90;;;5.20;1.00;;;;;;5014095;28;20474;-63
2020/12/04 05:17:08;;;;;;;5.13;4.60;;;5.20;1.00;;;;;;5014315;28;20409;-66
2020/12/04 05:19:36;;;;;;;4.57;4.07;;;5.20;1.00;;;;;;5014057;28;20409;-66
2020/12/04 05:22:13;;;;;;;4.63;4.18;;;5.20;1.00;;;;;;5012504;28;20420;-65
2020/12/04 05:24:40;;;;;;;4.07;3.65;;;5.30;1.00;;;;;;5013746;28;20413;-65
2020/12/04 05:27:24;;;;;;;3.72;3.38;;;5.30;1.00;;;;;;5014035;28;20455;-66
2020/12/04 05:29:52;;;;;;;4.30;3.50;;;5.30;1.00;;;;;;5013493;28;20487;-65
2020/12/04 05:32:19;;;;;;;3.72;3.30;;;5.30;1.00;;;;;;5013864;28;20948;-64
2020/12/04 05:34:45;;;;;;;4.25;3.85;;;5.40;1.00;;;;;;5013616;28;20948;-65
2020/12/04 05:37:12;;;;;;;4.90;4.40;;;5.30;1.00;;;;;;5014004;28;20893;-65
2020/12/04 05:39:42;;;;;;;4.60;4.10;;;5.40;1.00;;;;;;5013999;28;20467;-66
2020/12/04 05:42:08;;;;;;;3.90;3.50;;;5.40;1.00;;;;;;5016551;28;20459;-65
2020/12/04 05:44:35;;;;;;;4.30;3.85;;;5.40;1.00;;;;;;5013647;28;20433;-65
2020/12/04 05:47:01;;;;;;;3.83;3.43;;;5.40;1.00;;;;;;5013946;28;20478;-65
2020/12/04 05:49:41;;;;;;;3.88;3.47;;;5.50;1.00;;;;;;5013429;28;20483;-65
2020/12/04 05:52:08;;;;;;;3.92;3.33;;;5.50;1.00;;;;;;5013620;28;20416;-66
2020/12/04 05:54:34;;;;;;;3.70;3.40;;;5.60;1.00;;;;;;5013493;28;20412;-65
2020/12/04 05:57:02;;;;;;;3.75;3.45;;;5.60;1.00;;;;;;5012206;28;20416;-65
2020/12/04 05:59:29;;;;;;;5.45;3.22;;;5.60;1.00;;;;;;5013555;28;20416;-65
2020/12/04 06:01:57;;;;;;;3.90;3.35;;;5.60;1.00;;;;;;5013366;28;20467;-65
2020/12/04 06:04:24;;;;;;;3.55;3.25;;;5.60;99.90;;;;;;5013371;28;20420;-65
2020/12/04 06:06:50;;;;;;;3.67;3.38;;;5.60;99.90;;;;;;5013250;28;20424;-65
2020/12/04 06:09:17;;;;;;;4.03;3.30;;;5.70;1.00;;;;;;5013167;28;20916;-65
2020/12/04 06:11:45;;;;;;;3.40;3.10;;;5.70;99.90;;;;;;5013078;28;20984;-64
2020/12/04 06:14:15;;;;;;;3.00;2.80;;;5.70;99.90;;;;;;5013538;28;20833;-64
2020/12/04 06:16:42;;;;;;;3.20;2.90;;;5.60;99.90;;;;;;5013252;28;20874;-64
2020/12/04 06:19:27;;;;;;;3.20;2.90;;;5.60;99.90;;;;;;5013208;28;20467;-65
2020/12/04 06:22:04;;;;;;;3.45;2.85;;;5.70;99.90;;;;;;5012068;28;20409;-66
2020/12/04 06:24:30;;;;;;;3.20;2.90;;;5.80;99.90;;;;;;5012023;28;20495;-65
2020/12/04 06:26:56;;;;;;;2.90;2.60;;;5.80;99.90;;;;;;5013736;28;20432;-65
2020/12/04 06:29:22;;;;;;;3.30;2.70;;;5.80;99.90;;;;;;5013390;28;20482;-64
2020/12/04 06:31:48;;;;;;;3.40;2.90;;;5.80;99.90;;;;;;5013326;28;20416;-64
2020/12/04 06:34:16;;;;;;;3.30;3.00;;;5.90;99.90;;;;;;5013421;28;20420;-65
2020/12/04 06:36:44;;;;;;;2.50;2.30;;;5.80;99.90;;;;;;5017460;28;20424;-64
2020/12/04 06:39:26;;;;;;;3.05;2.75;;;5.80;99.90;;;;;;5013349;28;20836;-64
2020/12/04 06:41:52;;;;;;;3.10;2.60;;;5.80;99.90;;;;;;5013077;28;20457;-64
2020/12/04 06:44:21;;;;;;;2.70;2.50;;;5.90;1.00;;;;;;5012371;28;20442;-66
2020/12/04 06:46:48;;;;;;;3.28;2.97;;;5.90;99.90;;;;;;5012598;28;21055;-66
2020/12/04 06:49:23;;;;;;;2.70;2.40;;;5.90;99.90;;;;;;5012200;28;20648;-66
2020/12/04 06:52:01;;;;;;;2.60;2.40;;;5.80;1.00;;;;;;5012822;28;20900;-65
2020/12/04 06:54:29;;;;;;;2.90;2.60;;;5.90;1.00;;;;;;5012047;28;20479;-65
2020/12/04 06:56:56;;;;;;;3.17;2.83;;;5.90;99.90;;;;;;5013327;28;20413;-65
2020/12/04 06:59:28;;;;;;;2.60;2.40;;;5.90;1.00;;;;;;5013139;28;20480;-65
2020/12/04 07:02:08;;;;;;;2.92;2.42;;;6.00;1.00;;;;;;5012800;28;20796;-64
2020/12/04 07:04:37;;;;;;;2.47;2.28;;;5.90;1.00;;;;;;5012778;28;20408;-65
2020/12/04 07:07:09;;;;;;;3.10;2.30;;;5.90;1.00;;;;;;5013178;28;20613;-64
2020/12/04 07:09:36;;;;;;;2.67;2.47;;;5.90;1.00;;;;;;5012187;28;20892;-64
2020/12/04 07:12:04;;;;;;;2.60;2.40;;;5.90;1.00;;;;;;5011811;28;20420;-65
2020/12/04 07:14:31;;;;;;;2.78;2.50;;;5.90;1.00;;;;;;5011861;28;20898;-64
2020/12/04 07:16:58;;;;;;;3.70;2.70;;;5.90;1.00;;;;;;5012462;28;20420;-63
2020/12/04 07:19:26;;;;;;;2.35;2.15;;;6.00;1.00;;;;;;5012732;28;20408;-63
2020/12/04 07:21:52;;;;;;;2.65;2.45;;;5.90;1.00;;;;;;5012492;28;20439;-67
2020/12/04 07:24:19;;;;;;;2.70;2.50;;;5.90;1.00;;;;;;5012166;28;20467;-65
2020/12/04 07:26:51;;;;;;;2.88;2.63;;;5.90;1.00;;;;;;5012561;28;20423;-65
2020/12/04 07:29:17;;;;;;;3.10;2.30;;;5.90;1.00;;;;;;5012375;28;20469;-65
2020/12/04 07:31:49;;;;;;;3.08;2.50;;;5.90;1.00;;;;;;5012245;28;20420;-65
2020/12/04 07:34:20;;;;;;;2.45;2.25;;;5.90;1.00;;;;;;5011687;28;20825;-65
2020/12/04 07:36:52;;;;;;;2.40;2.20;;;6.00;1.00;;;;;;5011783;28;20412;-66
2020/12/04 07:39:25;;;;;;;2.40;2.20;;;6.00;1.00;;;;;;5011969;28;20412;-64
2020/12/04 07:41:51;;;;;;;2.00;1.80;;;6.00;1.00;;;;;;5013935;28;20920;-64
2020/12/04 07:44:18;;;;;;;2.10;1.90;;;6.10;1.00;;;;;;5013237;28;20511;-65
2020/12/04 07:46:44;;;;;;;2.30;2.10;;;6.10;1.00;;;;;;5013581;28;20475;-66
2020/12/04 07:49:13;;;;;;;2.58;2.00;;;6.20;1.00;;;;;;5014629;28;20429;-65
2020/12/04 07:51:40;;;;;;;2.30;2.10;;;6.20;1.00;;;;;;5015162;28;20504;-66
2020/12/04 07:54:19;;;;;;;2.13;1.92;;;6.30;1.00;;;;;;5012835;28;20951;-65
2020/12/04 07:56:51;;;;;;;2.38;2.10;;;6.60;1.00;;;;;;5012284;28;20828;-66
2020/12/04 07:59:20;;;;;;;2.10;1.80;;;6.30;1.00;;;;;;5012028;28;20952;-66
2020/12/04 08:01:47;;;;;;;2.17;1.98;;;6.30;1.00;;;;;;5011928;28;20482;-65
2020/12/04 08:04:18;;;;;;;2.05;1.90;;;6.30;1.00;;;;;;5012268;28;20828;-65
2020/12/04 08:06:44;;;;;;;2.28;2.08;;;6.30;1.00;;;;;;5011366;28;20932;-64
2020/12/04 08:09:13;;;;;;;2.28;2.08;;;6.40;1.00;;;;;;5011685;28;20482;-65
2020/12/04 08:11:50;;;;;;;1.70;1.60;;;6.50;1.00;;;;;;5012257;28;20419;-65
2020/12/04 08:14:23;;;;;;;2.58;1.95;;;6.60;1.00;;;;;;5011776;28;20447;-65
2020/12/04 08:16:49;;;;;;;2.00;1.50;;;6.60;1.00;;;;;;5011729;28;20879;-65
2020/12/04 08:19:15;;;;;;;2.70;1.70;;;6.60;1.00;;;;;;5011853;28;20455;-66
2020/12/04 08:22:04;;;;;;;1.70;1.60;;;6.60;1.00;;;;;;5015060;28;20478;-65
2020/12/04 08:24:32;;;;;;;1.88;1.67;;;6.70;1.00;;;;;;5015294;28;20777;-64
2020/12/04 08:27:07;;;;;;;1.50;1.40;;;6.70;1.00;;;;;;5015834;28;20416;-65
2020/12/04 08:29:34;;;;;;;1.80;1.70;;;6.80;1.00;;;;;;5015691;28;20474;-64
2020/12/04 08:32:05;;;;;;;1.90;1.50;;;6.70;1.00;;;;;;5016066;28;20417;-63
2020/12/04 08:34:32;;;;;;;3.08;1.60;;;6.70;1.00;;;;;;5015922;28;20996;-64
2020/12/04 08:36:59;;;;;;;1.50;1.40;;;6.70;1.00;;;;;;5016131;28;20416;-63
2020/12/04 08:39:34;;;;;;;1.50;1.40;;;6.70;1.00;;;;;;5019033;28;20405;-64
2020/12/04 08:42:15;;;;;;;2.05;1.58;;;6.80;1.00;;;;;;5026443;28;20428;-64
2020/12/04 08:44:41;;;;;;;1.70;1.60;;;6.80;1.00;;;;;;5026171;28;20452;-62
2020/12/04 08:47:08;;;;;;;1.60;1.50;;;6.90;1.00;;;;;;5014941;28;20412;-64
2020/12/04 08:49:34;;;;;;;1.40;1.30;;;6.90;1.00;;;;;;5015422;28;20494;-64
2020/12/04 08:52:01;;;;;;;1.58;1.20;;;6.80;1.00;;;;;;5016027;28;20439;-64
2020/12/04 08:54:27;;;;;;;1.60;1.50;;;6.90;1.00;;;;;;5016092;28;20439;-64
2020/12/04 08:56:55;;;;;;;1.40;1.30;;;6.90;1.00;;;;;;5019917;28;20416;-64
2020/12/04 08:59:23;;;;;;;1.60;1.50;;;6.90;99.90;;;;;;5020729;28;20793;-65
2020/12/04 09:01:50;;;;;;;3.00;1.90;;;7.00;1.00;;;;;;5019650;28;20838;-65
2020/12/04 09:04:16;;;;;;;2.05;1.35;;;7.00;1.00;;;;;;5018889;28;20436;-65
2020/12/04 09:06:42;;;;;;;1.60;1.50;;;7.10;1.00;;;;;;5017044;28;20463;-66
2020/12/04 09:09:08;;;;;;;1.80;1.70;;;7.00;1.00;;;;;;5014915;28;20912;-67
2020/12/04 09:11:34;;;;;;;2.30;2.00;;;7.10;99.90;;;;;;5015145;28;20412;-66
2020/12/04 09:14:01;;;;;;;2.10;1.30;;;7.10;99.90;;;;;;5014946;28;20416;-66
2020/12/04 09:16:28;;;;;;;1.50;1.30;;;7.10;1.00;;;;;;5014649;28;20496;-66
2020/12/04 09:18:54;;;;;;;1.63;1.52;;;7.10;1.00;;;;;;5015735;28;20440;-66
2020/12/04 09:21:20;;;;;;;1.55;1.20;;;7.20;1.00;;;;;;5014950;28;20417;-66
2020/12/04 09:23:46;;;;;;;1.70;1.40;;;7.20;1.00;;;;;;5014931;28;20413;-67
2020/12/04 09:26:12;;;;;;;2.90;1.67;;;7.30;99.90;;;;;;5019599;28;20416;-67
2020/12/04 09:28:38;;;;;;;2.40;1.60;;;7.10;99.90;;;;;;5015772;28;20420;-66
2020/12/04 09:31:04;;;;;;;1.77;1.67;;;7.10;1.00;;;;;;5014561;28;21067;-65
2020/12/04 09:33:31;;;;;;;1.73;1.60;;;7.10;1.00;;;;;;5013922;28;20417;-68
2020/12/04 09:35:58;;;;;;;1.90;1.67;;;7.20;1.00;;;;;;5014271;28;20409;-65
2020/12/04 09:38:24;;;;;;;4.45;2.50;;;7.30;1.00;;;;;;5014751;28;20417;-66
2020/12/04 09:40:50;;;;;;;1.50;1.40;;;7.20;99.90;;;;;;5015268;28;20416;-65
2020/12/04 09:43:16;;;;;;;1.60;1.50;;;7.10;99.90;;;;;;5015465;28;20495;-66
2020/12/04 09:45:42;;;;;;;1.77;1.50;;;7.20;99.90;;;;;;5015845;28;20413;-65
2020/12/04 09:48:08;;;;;;;1.70;1.60;;;7.30;99.90;;;;;;5014428;28;20417;-64
2020/12/04 09:50:35;;;;;;;1.60;1.50;;;7.40;99.90;;;;;;5014597;28;20486;-66
2020/12/04 09:53:01;;;;;;;1.80;1.40;;;7.40;99.90;;;;;;5014096;28;20841;-66
2020/12/04 09:55:28;;;;;;;2.28;1.50;;;7.50;99.90;;;;;;5013606;28;20816;-65
2020/12/04 09:57:54;;;;;;;1.90;1.27;;;7.60;99.90;;;;;;5014465;28;20425;-66
2020/12/04 10:00:20;;;;;;;1.83;1.43;;;7.70;99.90;;;;;;5014397;28;20404;-64
2020/12/04 10:02:46;;;;;;;1.50;1.40;;;7.80;99.90;;;;;;5013810;28;20824;-64
2020/12/04 10:05:12;;;;;;;1.30;1.20;;;7.90;99.90;;;;;;5014670;28;20417;-65
2020/12/04 10:07:39;;;;;;;1.50;1.40;;;7.90;99.90;;;;;;5014153;28;20420;-66
2020/12/04 10:10:05;;;;;;;1.80;1.30;;;7.90;99.90;;;;;;5014045;28;20432;-66
2020/12/04 10:12:31;;;;;;;2.00;1.60;;;8.00;99.90;;;;;;5014223;28;20409;-66
2020/12/04 10:14:57;;;;;;;2.00;1.80;;;8.10;99.90;;;;;;5013737;28;20462;-66
2020/12/04 10:17:23;;;;;;;1.70;1.60;;;8.00;99.90;;;;;;5013815;28;20916;-66
2020/12/04 10:19:50;;;;;;;1.50;1.38;;;8.00;99.90;;;;;;5013776;28;20417;-67
2020/12/04 10:22:16;;;;;;;1.67;1.17;;;7.80;99.90;;;;;;5013821;28;20413;-64
2020/12/04 10:24:43;;;;;;;2.00;1.52;;;7.70;99.90;;;;;;5013515;28;20417;-64
2020/12/04 10:27:09;;;;;;;1.55;1.45;;;7.70;99.90;;;;;;5013481;28;20471;-64
2020/12/04 10:29:35;;;;;;;1.95;1.63;;;7.80;99.90;;;;;;5012852;28;20432;-65
2020/12/04 10:32:01;;;;;;;1.75;1.23;;;7.80;99.90;;;;;;5013373;28;20412;-62
2020/12/04 10:34:27;;;;;;;1.60;1.50;;;7.80;99.90;;;;;;5013114;28;20466;-63
2020/12/04 10:36:54;;;;;;;1.23;1.00;;;7.70;1.00;;;;;;5013753;28;20420;-64
2020/12/04 10:39:20;;;;;;;2.22;1.40;;;7.90;99.90;;;;;;5013675;28;20439;-66
2020/12/04 10:41:47;;;;;;;1.60;1.45;;;8.00;99.90;;;;;;5013452;28;20417;-66
2020/12/04 10:44:13;;;;;;;4.80;2.23;;;8.10;99.90;;;;;;5012186;28;20901;-66
2020/12/04 10:46:40;;;;;;;3.88;1.38;;;8.40;99.90;;;;;;5012456;28;20416;-67
2020/12/04 10:49:07;;;;;;;2.00;1.58;;;8.60;99.90;;;;;;5012683;28;20487;-67
2020/12/04 10:51:33;;;;;;;3.70;1.60;;;8.60;99.90;;;;;;5012864;28;20408;-64
2020/12/04 10:53:59;;;;;;;1.70;1.42;;;8.60;99.90;;;;;;5012246;28;20417;-64
2020/12/04 10:56:25;;;;;;;2.30;1.40;;;8.40;99.90;;;;;;5012562;28;20423;-64
2020/12/04 10:58:53;;;;;;;2.00;1.30;;;8.30;99.90;;;;;;5014088;28;20489;-64
2020/12/04 11:01:26;;;;;;;1.50;1.20;;;8.10;99.90;;;;;;5012305;28;20413;-63
2020/12/04 11:06:36;;;;;;;1.17;0.90;;;8.00;99.90;;;;;;5013447;28;20437;-64
2020/12/04 11:09:03;;;;;;;1.30;1.10;;;8.00;99.90;;;;;;5012663;28;20547;-63
2020/12/04 11:11:29;;;;;;;1.30;1.20;;;8.10;99.90;;;;;;5012601;28;20877;-62
2020/12/04 11:13:56;;;;;;;1.70;1.00;;;8.30;99.90;;;;;;5011699;28;20427;-64
2020/12/04 11:16:22;;;;;;;1.55;0.93;;;8.40;99.90;;;;;;5013093;28;20474;-64
2020/12/04 11:18:48;;;;;;;1.10;1.00;;;8.40;99.90;;;;;;5012529;28;20416;-64
2020/12/04 11:21:14;;;;;;;1.00;0.90;;;8.10;99.90;;;;;;5012552;28;20413;-65
2020/12/04 11:23:40;;;;;;;2.10;1.10;;;8.20;99.90;;;;;;5012490;28;20906;-64
2020/12/04 11:26:07;;;;;;;1.20;1.10;;;8.20;99.90;;;;;;5014043;28;21151;-65
2020/12/04 11:28:33;;;;;;;1.50;1.10;;;8.30;99.90;;;;;;5011877;28;20420;-64
2020/12/04 11:31:00;;;;;;;1.10;1.00;;;8.40;99.90;;;;;;5012126;28;20416;-66
2020/12/04 11:33:26;;;;;;;1.90;1.10;;;8.40;99.90;;;;;;5011977;28;20416;-63
2020/12/04 11:35:52;;;;;;;1.42;1.20;;;8.50;99.90;;;;;;5012577;28;20466;-64
2020/12/04 11:38:18;;;;;;;1.10;0.88;;;8.50;99.90;;;;;;5011873;28;20420;-64
2020/12/04 11:40:44;;;;;;;1.40;1.05;;;8.50;99.90;;;;;;5011907;28;20409;-64
2020/12/04 11:43:10;;;;;;;1.20;1.10;;;8.40;99.90;;;;;;5012102;28;20882;-64
2020/12/04 11:45:38;;;;;;;1.20;1.10;;;8.40;99.90;;;;;;5012140;28;20543;-65
2020/12/04 11:48:05;;;;;;;1.55;0.90;;;8.40;99.90;;;;;;5013155;28;20417;-66
2020/12/04 11:50:31;;;;;;;1.77;1.30;;;8.20;99.90;;;;;;5012445;28;20478;-63
2020/12/04 11:52:57;;;;;;;1.40;1.00;;;8.20;99.90;;;;;;5011824;28;20467;-64
2020/12/04 11:55:23;;;;;;;2.08;1.20;;;8.40;99.90;;;;;;5011136;28;20420;-64
2020/12/04 11:57:49;;;;;;;1.85;1.23;;;8.50;99.90;;;;;;5011878;28;20893;-65
2020/12/04 12:00:18;;;;;;;1.48;1.17;;;8.60;99.90;;;;;;5012428;28;20409;-65
2020/12/04 12:02:44;;;;;;;1.25;1.13;;;8.70;99.90;;;;;;5012014;28;20420;-64
2020/12/04 12:05:12;;;;;;;1.35;1.00;;;8.80;99.90;;;;;;5012210;28;20420;-64
2020/12/04 12:07:39;;;;;;;1.35;1.20;;;9.00;99.90;;;;;;5012002;28;20455;-65
2020/12/04 12:10:05;;;;;;;1.58;1.48;;;9.10;99.90;;;;;;5011368;28;20915;-65
2020/12/04 12:12:32;;;;;;;1.20;1.10;;;8.80;99.90;;;;;;5010806;28;20908;-65
2020/12/04 12:14:58;;;;;;;1.42;1.33;;;8.80;99.90;;;;;;5012788;28;20412;-65
2020/12/04 12:17:24;;;;;;;1.40;1.30;;;8.70;99.90;;;;;;5011809;28;20483;-63
2020/12/04 12:19:50;;;;;;;1.95;1.20;;;8.70;99.90;;;;;;5012075;28;20408;-63
2020/12/04 12:22:17;;;;;;;1.00;0.90;;;8.80;99.90;;;;;;5011449;28;20417;-63
2020/12/04 12:24:43;;;;;;;1.40;1.10;;;8.60;99.90;;;;;;5010568;28;20409;-64
2020/12/04 12:27:10;;;;;;;1.75;1.23;;;8.50;99.90;;;;;;5011972;28;20470;-65
2020/12/04 12:29:37;;;;;;;1.30;1.20;;;8.50;99.90;;;;;;5012714;28;20844;-64
2020/12/04 12:32:04;;;;;;;3.00;1.42;;;8.50;99.90;;;;;;5011703;28;20416;-64
2020/12/04 12:37:11;;;;;;;1.20;1.10;;;8.50;99.90;;;;;;5011081;28;20440;-65
2020/12/04 12:39:38;;;;;;;1.90;1.40;;;8.40;99.90;;;;;;5011519;28;20413;-65
2020/12/04 12:42:07;;;;;;;1.45;1.30;;;8.30;99.90;;;;;;5011695;28;20804;-65
2020/12/04 12:44:33;;;;;;;1.60;1.50;;;8.20;99.90;;;;;;5011588;28;20456;-65
2020/12/04 12:46:59;;;;;;;2.78;2.30;;;8.30;99.90;;;;;;5012085;28;20417;-64
2020/12/04 12:49:25;;;;;;;3.00;2.30;;;8.40;99.90;;;;;;5011790;28;20459;-65
2020/12/04 12:51:52;;;;;;;2.50;1.52;;;8.40;99.90;;;;;;5011543;28;20474;-66
2020/12/04 12:54:18;;;;;;;1.70;1.40;;;8.40;99.90;;;;;;5010822;28;20905;-65
2020/12/04 12:56:47;;;;;;;1.42;1.33;;;8.30;99.90;;;;;;5011863;28;20459;-64
2020/12/04 12:59:14;;;;;;;1.83;1.63;;;8.40;99.90;;;;;;5011728;28;20447;-65
2020/12/04 13:01:40;;;;;;;1.60;1.50;;;8.40;99.90;;;;;;5011514;28;20416;-65
2020/12/04 13:04:06;;;;;;;1.90;1.30;;;8.40;99.90;;;;;;5011041;28;20852;-65
2020/12/04 13:06:32;;;;;;;1.75;1.33;;;8.40;99.90;;;;;;5012836;28;20905;-64
2020/12/04 13:08:58;;;;;;;1.80;1.70;;;8.40;99.90;;;;;;5014787;28;20512;-64